Time;durP1;ratioP1;P1;durP2;ratioP2;P2;SDS_P1;SDS_P2;PMS_P1;PMS_P2;Temp;Humidity;BMP_temperature;BMP_pressure;BME280_temperature;BME280_humidity;BME280_pressure;Samples;Min_cycle;Max_cycle;Signal;HPM_P1;HPM_P2
2023/06/03 00:00:16;;;;;;;11.05;3.72;;;;;;;;;;4970963;28;94665;-82
2023/06/03 00:02:43;;;;;;;6.15;2.90;;;;;;;;;;4970258;28;94706;-82
2023/06/03 00:05:10;;;;;;;5.28;3.03;;;;;;;;;;4946938;28;92376;-82
2023/06/03 00:07:36;;;;;;;17.77;4.18;;;;;;;;;;4975824;28;92071;-82
2023/06/03 00:10:03;;;;;;;6.97;3.47;;;;;;;;;;4976273;28;92371;-82
2023/06/03 00:12:30;;;;;;;8.45;3.30;;;;;;;;;;4977743;28;93494;-82
2023/06/03 00:14:56;;;;;;;7.03;3.00;;;;;;;;;;4977540;28;94440;-82
2023/06/03 00:17:26;;;;;;;5.82;3.50;;;;;;;;;;4960722;28;94721;-82
2023/06/03 00:19:54;;;;;;;6.00;2.88;;;;;;;;;;4961174;28;91713;-82
2023/06/03 00:22:23;;;;;;;9.98;3.83;;;;;;;;;;4974551;28;92146;-82
2023/06/03 00:24:50;;;;;;;6.90;3.45;;;;;;;;;;4976248;28;92486;-82
2023/06/03 00:27:17;;;;;;;6.65;3.53;;;;;;;;;;4976005;28;93736;-82
2023/06/03 00:29:43;;;;;;;5.10;3.13;;;;;;;;;;4972866;28;94433;-81
2023/06/03 00:32:10;;;;;;;5.78;3.10;;;;;;;;;;4980303;28;92791;-82
2023/06/03 00:34:36;;;;;;;5.93;3.15;;;;;;;;;;4972645;28;93058;-81
2023/06/03 00:37:05;;;;;;;7.63;2.97;;;;;;;;;;4986525;28;92017;-82
2023/06/03 00:39:32;;;;;;;8.18;3.63;;;;;;;;;;4977771;28;94524;-82
2023/06/03 00:41:58;;;;;;;9.57;3.60;;;;;;;;;;4974857;28;97126;-82
2023/06/03 00:44:25;;;;;;;3.88;3.25;;;;;;;;;;4975653;28;92490;-82
2023/06/03 00:46:52;;;;;;;10.45;4.00;;;;;;;;;;4959653;28;94831;-83
2023/06/03 00:49:18;;;;;;;4.70;3.08;;;;;;;;;;4972179;28;94586;-82
2023/06/03 00:51:46;;;;;;;5.50;3.40;;;;;;;;;;4988192;28;91916;-82
2023/06/03 00:54:13;;;;;;;6.07;4.30;;;;;;;;;;4973448;28;91690;-82
2023/06/03 00:56:44;;;;;;;5.00;3.83;;;;;;;;;;4973802;28;91610;-82
2023/06/03 00:59:12;;;;;;;7.07;3.83;;;;;;;;;;4979098;28;94898;-83
2023/06/03 01:01:42;;;;;;;6.03;3.80;;;;;;;;;;4975611;28;92449;-83
2023/06/03 01:04:16;;;;;;;7.43;4.18;;;;;;;;;;4974446;28;95960;-82
2023/06/03 01:06:47;;;;;;;10.57;3.63;;;;;;;;;;4966605;28;94380;-83
2023/06/03 01:09:32;;;;;;;9.02;5.00;;;;;;;;;;4974160;28;92292;-82
2023/06/03 01:12:02;;;;;;;4.38;3.85;;;;;;;;;;4963923;28;93814;-82
2023/06/03 01:14:34;;;;;;;7.47;3.92;;;;;;;;;;4953700;28;94349;-82
2023/06/03 01:17:09;;;;;;;7.18;3.63;;;;;;;;;;4967956;28;94559;-82
2023/06/03 01:19:49;;;;;;;8.20;3.95;;;;;;;;;;4976766;28;92061;-82
2023/06/03 01:22:16;;;;;;;4.25;3.35;;;;;;;;;;4976186;28;92090;-82
2023/06/03 01:24:48;;;;;;;6.80;4.05;;;;;;;;;;4977999;28;93015;-82
2023/06/03 01:27:14;;;;;;;9.93;4.38;;;;;;;;;;4945221;28;94539;-83
2023/06/03 01:29:42;;;;;;;8.85;4.03;;;;;;;;;;4976219;28;94077;-82
2023/06/03 01:32:13;;;;;;;10.10;4.45;;;;;;;;;;4977595;28;94826;-81
2023/06/03 01:34:41;;;;;;;10.00;3.55;;;;;;;;;;4956574;28;94413;-82
2023/06/03 01:37:09;;;;;;;6.22;3.60;;;;;;;;;;4972210;28;91837;-82
2023/06/03 01:39:40;;;;;;;8.13;4.28;;;;;;;;;;4980786;28;94347;-82
2023/06/03 01:42:07;;;;;;;4.85;3.28;;;;;;;;;;4975825;28;93725;-81
2023/06/03 01:44:34;;;;;;;23.98;4.38;;;;;;;;;;4964861;28;92123;-82
2023/06/03 01:47:01;;;;;;;6.75;4.05;;;;;;;;;;4972086;28;91983;-82
2023/06/03 01:49:31;;;;;;;9.60;3.80;;;;;;;;;;4973202;28;93690;-82
2023/06/03 01:51:58;;;;;;;8.35;3.88;;;;;;;;;;4975513;28;94818;-82
2023/06/03 01:54:25;;;;;;;10.10;4.05;;;;;;;;;;4973364;28;94123;-82
2023/06/03 01:56:53;;;;;;;8.40;4.25;;;;;;;;;;4973887;28;94150;-82
2023/06/03 01:59:23;;;;;;;9.30;4.10;;;;;;;;;;4967653;28;94159;-82
2023/06/03 02:01:53;;;;;;;8.15;4.45;;;;;;;;;;4959158;28;94090;-82
2023/06/03 02:04:20;;;;;;;10.40;4.60;;;;;;;;;;4961314;28;96153;-81
2023/06/03 02:06:55;;;;;;;4.47;3.92;;;;;;;;;;4960289;28;94542;-81
2023/06/03 02:09:24;;;;;;;6.18;4.10;;;;;;;;;;4975082;28;92294;-82
2023/06/03 02:11:52;;;;;;;8.13;3.63;;;;;;;;;;4968244;28;93500;-82
2023/06/03 02:14:18;;;;;;;9.15;3.95;;;;;;;;;;4991234;28;94740;-81
2023/06/03 02:16:45;;;;;;;5.60;3.53;;;;;;;;;;4978543;28;91608;-81
2023/06/03 02:19:12;;;;;;;8.73;4.47;;;;;;;;;;4966608;28;96545;-81
2023/06/03 02:21:39;;;;;;;9.05;3.78;;;;;;;;;;4957166;28;95815;-81
2023/06/03 02:24:07;;;;;;;6.95;4.10;;;;;;;;;;4959048;28;92691;-81
2023/06/03 02:26:35;;;;;;;8.48;3.72;;;;;;;;;;4949333;28;92277;-81
2023/06/03 02:29:02;;;;;;;6.30;4.22;;;;;;;;;;4957722;28;92399;-82
2023/06/03 02:31:29;;;;;;;6.32;3.45;;;;;;;;;;4959924;28;94793;-82
2023/06/03 02:33:56;;;;;;;10.32;4.28;;;;;;;;;;4965810;28;93861;-82
2023/06/03 02:36:22;;;;;;;5.93;3.55;;;;;;;;;;4954100;28;95039;-82
2023/06/03 02:38:49;;;;;;;4.45;3.65;;;;;;;;;;4963989;28;94119;-82
2023/06/03 02:41:15;;;;;;;5.65;3.83;;;;;;;;;;4969224;28;93227;-82
2023/06/03 02:43:42;;;;;;;8.05;4.18;;;;;;;;;;4962266;28;94517;-82
2023/06/03 02:46:09;;;;;;;4.35;3.83;;;;;;;;;;4966600;28;92897;-82
2023/06/03 02:48:35;;;;;;;4.72;3.78;;;;;;;;;;4951802;28;95280;-82
2023/06/03 02:51:02;;;;;;;7.47;3.72;;;;;;;;;;4961967;28;95749;-82
2023/06/03 02:53:30;;;;;;;10.02;4.28;;;;;;;;;;4953184;28;95395;-82
2023/06/03 02:55:56;;;;;;;6.18;3.75;;;;;;;;;;4955400;28;92422;-81
2023/06/03 02:58:23;;;;;;;6.03;4.10;;;;;;;;;;4971385;28;93951;-82
2023/06/03 03:00:50;;;;;;;5.63;3.63;;;;;;;;;;4973922;28;92548;-82
2023/06/03 03:03:16;;;;;;;5.22;3.58;;;;;;;;;;4965429;28;92961;-81
2023/06/03 03:05:44;;;;;;;5.30;3.90;;;;;;;;;;4968644;28;92467;-82
2023/06/03 03:08:11;;;;;;;4.30;3.75;;;;;;;;;;4968770;28;94746;-82
2023/06/03 03:10:38;;;;;;;3.83;3.20;;;;;;;;;;4963426;28;98498;-82
2023/06/03 03:13:05;;;;;;;6.47;3.55;;;;;;;;;;4950143;28;94418;-82
2023/06/03 03:15:32;;;;;;;7.97;3.97;;;;;;;;;;4971295;28;94370;-83
2023/06/03 03:17:59;;;;;;;11.15;4.38;;;;;;;;;;4953209;28;95318;-82
2023/06/03 03:20:28;;;;;;;9.27;3.75;;;;;;;;;;4979510;28;95292;-82
2023/06/03 03:22:55;;;;;;;5.22;3.40;;;;;;;;;;4956295;28;94105;-82
2023/06/03 03:25:24;;;;;;;13.20;4.07;;;;;;;;;;4966267;28;95411;-82
2023/06/03 03:27:51;;;;;;;5.45;3.83;;;;;;;;;;4983488;28;92438;-82
2023/06/03 03:30:18;;;;;;;6.53;3.97;;;;;;;;;;4954027;28;94480;-82
2023/06/03 03:32:45;;;;;;;9.73;4.03;;;;;;;;;;4964840;28;94874;-82
2023/06/03 03:35:16;;;;;;;7.10;3.90;;;;;;;;;;4966039;28;96665;-82
2023/06/03 03:37:45;;;;;;;3.95;3.65;;;;;;;;;;4968734;28;95314;-82
2023/06/03 03:40:18;;;;;;;7.70;3.67;;;;;;;;;;4971205;28;92113;-82
2023/06/03 03:42:49;;;;;;;7.65;3.40;;;;;;;;;;4970591;28;94605;-82
2023/06/03 03:45:19;;;;;;;5.65;3.35;;;;;;;;;;4966855;28;94393;-82
2023/06/03 03:47:48;;;;;;;5.50;4.00;;;;;;;;;;4967757;28;94882;-82
2023/06/03 03:50:35;;;;;;;6.30;4.03;;;;;;;;;;4972515;28;94926;-82
2023/06/03 03:53:04;;;;;;;5.32;3.80;;;;;;;;;;4970901;28;93441;-83
2023/06/03 03:55:58;;;;;;;4.80;3.92;;;;;;;;;;4965431;28;92179;-83
2023/06/03 03:58:29;;;;;;;7.25;3.88;;;;;;;;;;4958392;28;96130;-83
2023/06/03 04:01:00;;;;;;;4.82;3.80;;;;;;;;;;4968611;28;96113;-83
2023/06/03 04:03:35;;;;;;;4.20;3.80;;;;;;;;;;4965290;28;94989;-83
2023/06/03 04:06:02;;;;;;;11.27;3.80;;;;;;;;;;4945391;28;95017;-83
2023/06/03 04:08:35;;;;;;;6.85;3.80;;;;;;;;;;4954168;28;92548;-82
2023/06/03 04:11:02;;;;;;;4.95;3.70;;;;;;;;;;4929102;28;93968;-82
2023/06/03 04:13:29;;;;;;;5.65;3.95;;;;;;;;;;4957794;28;92443;-82
2023/06/03 04:16:00;;;;;;;5.47;3.58;;;;;;;;;;4957628;28;95605;-83
2023/06/03 04:18:28;;;;;;;5.50;3.65;;;;;;;;;;4953498;28;94236;-83
2023/06/03 04:20:56;;;;;;;4.47;3.35;;;;;;;;;;4955500;28;94464;-83
2023/06/03 04:23:26;;;;;;;7.63;4.13;;;;;;;;;;4950653;28;95800;-83
2023/06/03 04:25:53;;;;;;;8.23;3.88;;;;;;;;;;4962544;28;92273;-83
2023/06/03 04:28:21;;;;;;;5.70;4.22;;;;;;;;;;4959497;28;94322;-83
2023/06/03 04:30:48;;;;;;;7.97;4.28;;;;;;;;;;4951714;28;94293;-83
2023/06/03 04:33:14;;;;;;;11.35;3.80;;;;;;;;;;4960818;28;94762;-84
2023/06/03 04:35:41;;;;;;;11.40;4.80;;;;;;;;;;4964628;28;92227;-83
2023/06/03 04:38:08;;;;;;;5.88;3.55;;;;;;;;;;4967424;28;94184;-83
2023/06/03 04:40:37;;;;;;;5.75;3.60;;;;;;;;;;4988444;28;94682;-83
2023/06/03 04:43:05;;;;;;;7.88;3.92;;;;;;;;;;4968992;28;93701;-83
2023/06/03 04:45:34;;;;;;;9.27;3.88;;;;;;;;;;4962099;28;96017;-83
2023/06/03 04:48:02;;;;;;;6.15;4.00;;;;;;;;;;4945307;28;95009;-83
2023/06/03 04:50:34;;;;;;;6.82;3.33;;;;;;;;;;4977943;28;93959;-83
2023/06/03 04:53:04;;;;;;;3.60;2.83;;;;;;;;;;4959424;28;94012;-83
2023/06/03 04:55:31;;;;;;;6.90;3.35;;;;;;;;;;4963147;28;92526;-83
2023/06/03 04:58:00;;;;;;;8.57;3.15;;;;;;;;;;4963506;28;94153;-83
2023/06/03 05:00:28;;;;;;;3.30;3.00;;;;;;;;;;4970428;28;94349;-83
2023/06/03 05:03:08;;;;;;;4.00;2.60;;;;;;;;;;4978375;28;94424;-84
2023/06/03 05:05:39;;;;;;;3.88;2.60;;;;;;;;;;4965671;28;93238;-83
2023/06/03 05:08:06;;;;;;;4.97;2.45;;;;;;;;;;4959635;28;94476;-86
2023/06/03 05:10:34;;;;;;;5.63;2.17;;;;;;;;;;4958035;28;92129;-85
2023/06/03 05:13:07;;;;;;;2.10;1.77;;;;;;;;;;4953860;28;96745;-86
2023/06/03 05:15:35;;;;;;;10.55;2.67;;;;;;;;;;4953862;28;94760;-86
2023/06/03 05:18:02;;;;;;;34.22;4.93;;;;;;;;;;4957080;28;94060;-85
2023/06/03 05:20:31;;;;;;;2.67;2.45;;;;;;;;;;4951991;28;94278;-86
2023/06/03 05:22:58;;;;;;;9.25;2.95;;;;;;;;;;4952872;28;93972;-85
2023/06/03 05:25:25;;;;;;;2.67;2.47;;;;;;;;;;4954826;28;95751;-85
2023/06/03 05:27:52;;;;;;;5.70;2.88;;;;;;;;;;4961455;28;94567;-85
2023/06/03 05:30:31;;;;;;;2.65;2.28;;;;;;;;;;4942345;28;93855;-86
2023/06/03 05:32:57;;;;;;;7.93;2.30;;;;;;;;;;4956699;28;94996;-86
2023/06/03 05:35:24;;;;;;;2.13;1.90;;;;;;;;;;4961590;28;93650;-85
2023/06/03 05:37:51;;;;;;;2.97;1.83;;;;;;;;;;4945405;28;94737;-85
2023/06/03 05:40:18;;;;;;;5.63;2.50;;;;;;;;;;4957912;28;95037;-85
2023/06/03 05:42:47;;;;;;;4.07;2.15;;;;;;;;;;4943909;28;93273;-85
2023/06/03 05:45:16;;;;;;;2.90;2.17;;;;;;;;;;4945850;28;94277;-84
2023/06/03 05:47:42;;;;;;;4.90;2.08;;;;;;;;;;4937150;28;95299;-85
2023/06/03 05:50:09;;;;;;;9.38;2.85;;;;;;;;;;4937696;28;94549;-85
2023/06/03 05:52:36;;;;;;;13.07;2.13;;;;;;;;;;4943318;28;95113;-84
2023/06/03 05:55:04;;;;;;;8.57;2.05;;;;;;;;;;4959365;28;95936;-85
2023/06/03 05:57:31;;;;;;;10.43;2.38;;;;;;;;;;4942052;28;92341;-85
2023/06/03 05:59:57;;;;;;;5.30;2.28;;;;;;;;;;4941502;28;97107;-84
2023/06/03 06:02:24;;;;;;;2.58;1.73;;;;;;;;;;4954238;28;94836;-84
2023/06/03 06:04:51;;;;;;;12.82;1.90;;;;;;;;;;4962296;28;97704;-84
2023/06/03 06:07:18;;;;;;;2.67;1.77;;;;;;;;;;4957568;28;92510;-85
2023/06/03 06:09:45;;;;;;;5.28;1.63;;;;;;;;;;4960131;28;92723;-85
2023/06/03 06:12:11;;;;;;;8.55;2.10;;;;;;;;;;4945174;28;92180;-85
2023/06/03 06:14:38;;;;;;;2.72;1.30;;;;;;;;;;4946908;28;94618;-85
2023/06/03 06:17:05;;;;;;;2.45;1.75;;;;;;;;;;4955595;28;94406;-85
2023/06/03 06:19:34;;;;;;;6.68;1.70;;;;;;;;;;4956943;28;93928;-85
2023/06/03 06:22:02;;;;;;;7.15;1.80;;;;;;;;;;4938912;28;95051;-87
2023/06/03 06:24:31;;;;;;;5.32;1.38;;;;;;;;;;4962963;28;92460;-85
2023/06/03 06:27:01;;;;;;;3.07;1.97;;;;;;;;;;4933376;28;98184;-85
2023/06/03 06:29:30;;;;;;;2.05;1.85;;;;;;;;;;4940699;28;96902;-85
2023/06/03 06:31:58;;;;;;;5.20;2.03;;;;;;;;;;4952968;28;93641;-85
2023/06/03 06:34:29;;;;;;;3.80;2.05;;;;;;;;;;4944795;28;93711;-85
2023/06/03 06:36:57;;;;;;;4.27;1.50;;;;;;;;;;4964719;28;94564;-85
2023/06/03 06:39:34;;;;;;;1.98;1.63;;;;;;;;;;4960178;28;92335;-85
2023/06/03 06:42:11;;;;;;;6.13;1.48;;;;;;;;;;4965788;28;92342;-85
2023/06/03 06:44:45;;;;;;;4.13;1.85;;;;;;;;;;4960501;28;93688;-85
2023/06/03 06:47:12;;;;;;;2.33;1.85;;;;;;;;;;4930828;28;95133;-84
2023/06/03 06:49:39;;;;;;;1.70;1.60;;;;;;;;;;4962383;28;93162;-84
2023/06/03 06:52:09;;;;;;;4.93;2.00;;;;;;;;;;4949567;28;97314;-84
2023/06/03 06:54:36;;;;;;;9.25;1.75;;;;;;;;;;4961519;28;95651;-85
2023/06/03 06:57:05;;;;;;;4.90;1.52;;;;;;;;;;4957977;28;91923;-85
2023/06/03 06:59:32;;;;;;;4.57;1.65;;;;;;;;;;4947398;28;94423;-85
2023/06/03 07:01:59;;;;;;;4.57;1.73;;;;;;;;;;4956878;28;94890;-85
2023/06/03 07:04:26;;;;;;;1.98;1.77;;;;;;;;;;4967495;28;95284;-85
2023/06/03 07:06:52;;;;;;;3.47;1.60;;;;;;;;;;4974884;28;94061;-85
2023/06/03 07:09:20;;;;;;;10.90;1.75;;;;;;;;;;4974270;28;91743;-84
2023/06/03 07:11:47;;;;;;;3.67;1.95;;;;;;;;;;4961050;28;93843;-85
2023/06/03 07:14:16;;;;;;;17.35;1.95;;;;;;;;;;4975327;28;92357;-85
2023/06/03 07:16:43;;;;;;;4.40;2.03;;;;;;;;;;4974336;28;94773;-84
2023/06/03 07:19:10;;;;;;;5.03;1.85;;;;;;;;;;4969642;28;94579;-84
2023/06/03 07:21:41;;;;;;;4.35;1.77;;;;;;;;;;4959885;28;94726;-84
2023/06/03 07:24:11;;;;;;;3.20;1.73;;;;;;;;;;4972275;28;92149;-85
2023/06/03 07:26:40;;;;;;;6.20;1.70;;;;;;;;;;4960020;28;94581;-85
2023/06/03 07:29:08;;;;;;;8.27;2.03;;;;;;;;;;4948155;28;94529;-85
2023/06/03 07:31:39;;;;;;;2.28;1.55;;;;;;;;;;4961049;28;95410;-84
2023/06/03 07:34:08;;;;;;;7.93;1.65;;;;;;;;;;4947957;28;93981;-85
2023/06/03 07:36:43;;;;;;;3.08;1.85;;;;;;;;;;4971650;28;94848;-84
2023/06/03 07:39:14;;;;;;;2.63;1.65;;;;;;;;;;4978337;28;94662;-85
2023/06/03 07:41:50;;;;;;;3.05;1.50;;;;;;;;;;4963730;28;94977;-84
2023/06/03 07:44:49;;;;;;;2.00;1.30;;;;;;;;;;4951210;28;95140;-84
2023/06/03 07:47:16;;;;;;;1.95;1.40;;;;;;;;;;4975814;28;92283;-84
2023/06/03 07:49:43;;;;;;;4.85;1.63;;;;;;;;;;4962406;28;94318;-84
2023/06/03 07:52:13;;;;;;;2.65;1.35;;;;;;;;;;4973339;28;93648;-85
2023/06/03 07:54:40;;;;;;;8.25;1.90;;;;;;;;;;4993270;28;91900;-85
2023/06/03 07:57:07;;;;;;;5.88;1.30;;;;;;;;;;4984603;28;92510;-85
2023/06/03 07:59:34;;;;;;;2.10;1.58;;;;;;;;;;4979044;28;91371;-84
2023/06/03 08:02:00;;;;;;;2.20;1.40;;;;;;;;;;4971008;28;91892;-85
2023/06/03 08:04:32;;;;;;;3.40;1.60;;;;;;;;;;4972870;28;91547;-85
2023/06/03 08:07:02;;;;;;;10.82;1.58;;;;;;;;;;4969155;28;94871;-84
2023/06/03 08:09:32;;;;;;;4.00;1.38;;;;;;;;;;4976303;28;94961;-84
2023/06/03 08:12:00;;;;;;;6.05;1.15;;;;;;;;;;4973148;28;91978;-85
2023/06/03 08:14:29;;;;;;;8.25;1.65;;;;;;;;;;4964572;28;91878;-85
2023/06/03 08:16:56;;;;;;;4.70;1.30;;;;;;;;;;4962362;28;92237;-85
2023/06/03 08:19:23;;;;;;;2.83;1.45;;;;;;;;;;4965509;28;92440;-86
2023/06/03 08:21:50;;;;;;;5.95;1.17;;;;;;;;;;4983945;28;92367;-84
2023/06/03 08:24:17;;;;;;;3.83;1.02;;;;;;;;;;4972530;28;91658;-83
2023/06/03 08:26:45;;;;;;;2.13;1.00;;;;;;;;;;4962300;28;94854;-84
2023/06/03 08:29:12;;;;;;;1.23;1.10;;;;;;;;;;4973565;28;92077;-84
2023/06/03 08:31:39;;;;;;;2.65;1.25;;;;;;;;;;4957608;28;94215;-85
2023/06/03 08:34:05;;;;;;;1.77;0.73;;;;;;;;;;4964867;28;94672;-85
2023/06/03 08:36:32;;;;;;;11.35;1.55;;;;;;;;;;4959412;28;95050;-84
2023/06/03 08:38:59;;;;;;;10.27;1.30;;;;;;;;;;4971271;28;92838;-83
2023/06/03 08:41:26;;;;;;;1.20;0.82;;;;;;;;;;4952379;28;92352;-84
2023/06/03 08:43:57;;;;;;;2.38;1.20;;;;;;;;;;4957436;28;92892;-85
2023/06/03 08:46:30;;;;;;;3.00;0.95;;;;;;;;;;4965051;28;92164;-84
2023/06/03 08:49:03;;;;;;;4.32;1.10;;;;;;;;;;4963490;28;94398;-85
2023/06/03 08:51:37;;;;;;;4.63;0.93;;;;;;;;;;4961388;28;92846;-84
2023/06/03 08:54:17;;;;;;;1.10;0.95;;;;;;;;;;4954575;28;94169;-84
2023/06/03 08:56:45;;;;;;;1.45;1.10;;;;;;;;;;4966011;28;94635;-85
2023/06/03 08:59:15;;;;;;;2.08;1.00;;;;;;;;;;4955816;28;95045;-84
2023/06/03 09:01:42;;;;;;;2.05;1.00;;;;;;;;;;4973414;28;92390;-85
2023/06/03 09:04:11;;;;;;;8.60;1.15;;;;;;;;;;4971481;28;92230;-84
2023/06/03 09:06:42;;;;;;;3.83;0.93;;;;;;;;;;4971282;28;92284;-83
2023/06/03 09:09:10;;;;;;;9.47;1.23;;;;;;;;;;4971459;28;92372;-85
2023/06/03 09:11:38;;;;;;;14.23;1.23;;;;;;;;;;4965270;28;95786;-84
2023/06/03 09:14:04;;;;;;;5.28;1.15;;;;;;;;;;4969682;28;92137;-84
2023/06/03 09:16:35;;;;;;;1.63;0.90;;;;;;;;;;4956800;28;95564;-85
2023/06/03 09:19:02;;;;;;;2.70;0.80;;;;;;;;;;4957655;28;92625;-84
2023/06/03 09:21:29;;;;;;;3.13;0.80;;;;;;;;;;4962952;28;94680;-83
2023/06/03 09:23:56;;;;;;;1.10;0.90;;;;;;;;;;4973979;28;91979;-83
2023/06/03 09:26:23;;;;;;;5.80;1.00;;;;;;;;;;4973362;28;91999;-83
2023/06/03 09:28:49;;;;;;;7.32;0.98;;;;;;;;;;4958123;28;92266;-84
2023/06/03 09:31:16;;;;;;;3.63;0.98;;;;;;;;;;4967181;28;94237;-84
2023/06/03 09:33:43;;;;;;;4.95;0.90;;;;;;;;;;4967135;28;92340;-84
2023/06/03 09:36:10;;;;;;;1.38;0.80;;;;;;;;;;4965903;28;92384;-85
2023/06/03 09:38:45;;;;;;;6.85;0.80;;;;;;;;;;4964149;28;92069;-84
2023/06/03 09:41:13;;;;;;;10.93;1.25;;;;;;;;;;4948034;28;94680;-84
2023/06/03 09:43:40;;;;;;;8.63;1.30;;;;;;;;;;4954250;28;92939;-85
2023/06/03 09:46:09;;;;;;;7.43;2.13;;;;;;;;;;4947087;28;94396;-84
2023/06/03 09:48:36;;;;;;;1.27;0.90;;;;;;;;;;4947004;28;94537;-85
2023/06/03 09:51:06;;;;;;;3.30;0.90;;;;;;;;;;4969273;28;92605;-84
2023/06/03 09:53:33;;;;;;;2.85;0.90;;;;;;;;;;4956214;28;93266;-84
2023/06/03 09:56:19;;;;;;;3.92;0.75;;;;;;;;;;4964698;28;93044;-84
2023/06/03 09:58:46;;;;;;;9.57;1.05;;;;;;;;;;4955734;28;93230;-84
2023/06/03 10:01:12;;;;;;;4.35;1.00;;;;;;;;;;4958718;28;92329;-85
2023/06/03 10:03:56;;;;;;;6.32;0.90;;;;;;;;;;4958479;28;92100;-84
2023/06/03 10:06:22;;;;;;;2.65;1.20;;;;;;;;;;4968991;28;92458;-84
2023/06/03 10:08:49;;;;;;;1.60;0.77;;;;;;;;;;4969444;28;93069;-83
2023/06/03 10:11:16;;;;;;;2.35;1.08;;;;;;;;;;4960052;28;94850;-84
2023/06/03 10:13:44;;;;;;;1.80;1.25;;;;;;;;;;4972267;28;94423;-84
2023/06/03 10:16:11;;;;;;;2.20;0.88;;;;;;;;;;4970668;28;91902;-84
2023/06/03 10:18:39;;;;;;;2.90;1.05;;;;;;;;;;4969475;28;92358;-85
2023/06/03 10:21:07;;;;;;;7.43;1.30;;;;;;;;;;4966650;28;92343;-85
2023/06/03 10:23:36;;;;;;;2.22;0.77;;;;;;;;;;4960382;28;94583;-85
2023/06/03 10:26:06;;;;;;;2.50;0.95;;;;;;;;;;4965931;28;93664;-84
2023/06/03 10:28:33;;;;;;;2.95;0.90;;;;;;;;;;4965422;28;93710;-84
2023/06/03 10:31:00;;;;;;;16.77;1.77;;;;;;;;;;4979794;28;94742;-85
2023/06/03 10:33:28;;;;;;;4.68;1.10;;;;;;;;;;4970537;28;92922;-84
2023/06/03 10:35:56;;;;;;;5.15;0.75;;;;;;;;;;4966854;28;94360;-83
2023/06/03 10:38:22;;;;;;;1.35;0.70;;;;;;;;;;4957113;28;94413;-86
2023/06/03 10:40:49;;;;;;;9.48;0.65;;;;;;;;;;4967947;28;92464;-84
2023/06/03 10:43:17;;;;;;;3.55;0.70;;;;;;;;;;4960669;28;92792;-83
2023/06/03 10:45:44;;;;;;;0.77;0.77;;;;;;;;;;4958679;28;93663;-84
2023/06/03 10:48:12;;;;;;;1.10;0.50;;;;;;;;;;4963602;28;93572;-84
2023/06/03 10:50:50;;;;;;;1.45;1.17;;;;;;;;;;4957861;28;92082;-83
2023/06/03 10:53:17;;;;;;;1.13;0.80;;;;;;;;;;4965781;28;92439;-83
2023/06/03 10:56:04;;;;;;;2.47;0.90;;;;;;;;;;4956172;28;93886;-83
2023/06/03 10:58:30;;;;;;;0.65;0.55;;;;;;;;;;4973246;28;94179;-84
2023/06/03 11:01:06;;;;;;;5.93;0.73;;;;;;;;;;4952818;28;96209;-84
2023/06/03 11:03:34;;;;;;;1.63;0.85;;;;;;;;;;4965533;28;95225;-84
2023/06/03 11:06:17;;;;;;;3.50;0.70;;;;;;;;;;4969510;28;92246;-84
2023/06/03 11:08:57;;;;;;;1.63;0.57;;;;;;;;;;4943500;28;94909;-84
2023/06/03 11:11:44;;;;;;;2.55;0.88;;;;;;;;;;4959800;28;92385;-83
2023/06/03 11:14:10;;;;;;;2.03;1.05;;;;;;;;;;4971081;28;92424;-84
2023/06/03 11:16:56;;;;;;;1.33;0.75;;;;;;;;;;4968710;28;91968;-82
2023/06/03 11:19:29;;;;;;;2.90;0.85;;;;;;;;;;4971148;28;94732;-83
2023/06/03 11:21:55;;;;;;;1.00;0.80;;;;;;;;;;4958500;28;92391;-83
2023/06/03 11:24:37;;;;;;;4.93;1.27;;;;;;;;;;4952964;28;92148;-83
2023/06/03 11:27:13;;;;;;;6.28;1.25;;;;;;;;;;4955668;28;94889;-84
2023/06/03 11:29:46;;;;;;;5.45;1.60;;;;;;;;;;4955172;28;92541;-82
2023/06/03 11:32:13;;;;;;;0.60;0.60;;;;;;;;;;4959710;28;94497;-83
2023/06/03 11:34:40;;;;;;;0.60;0.60;;;;;;;;;;4961482;28;94824;-83
2023/06/03 11:37:07;;;;;;;2.75;0.50;;;;;;;;;;4960777;28;92460;-84
2023/06/03 11:39:53;;;;;;;3.40;0.90;;;;;;;;;;4955055;28;93048;-84
2023/06/03 11:42:19;;;;;;;3.40;0.68;;;;;;;;;;4962761;28;92420;-84
2023/06/03 11:44:46;;;;;;;3.40;0.70;;;;;;;;;;4951331;28;95030;-83
2023/06/03 11:47:12;;;;;;;1.13;0.40;;;;;;;;;;4959540;28;92214;-83
2023/06/03 11:49:39;;;;;;;0.82;0.60;;;;;;;;;;4961570;28;92528;-83
2023/06/03 11:52:07;;;;;;;1.05;0.68;;;;;;;;;;4959660;28;94543;-83
2023/06/03 11:54:35;;;;;;;3.15;0.60;;;;;;;;;;4970519;28;94551;-84
2023/06/03 11:57:03;;;;;;;4.40;1.15;;;;;;;;;;4955243;28;94077;-84
2023/06/03 11:59:42;;;;;;;6.07;1.25;;;;;;;;;;4971763;28;92207;-83
2023/06/03 12:02:09;;;;;;;0.65;0.63;;;;;;;;;;4971062;28;92305;-84
2023/06/03 12:04:37;;;;;;;7.78;0.80;;;;;;;;;;4969756;28;91966;-83
2023/06/03 12:07:15;;;;;;;1.48;0.60;;;;;;;;;;4971690;28;92101;-83
2023/06/03 12:09:41;;;;;;;1.00;0.47;;;;;;;;;;4967549;28;91942;-84
2023/06/03 12:12:09;;;;;;;0.55;0.40;;;;;;;;;;4967977;28;92507;-83
2023/06/03 12:14:38;;;;;;;0.73;0.60;;;;;;;;;;4969543;28;94647;-83
2023/06/03 12:17:10;;;;;;;4.85;0.55;;;;;;;;;;4967484;28;94320;-84
2023/06/03 12:19:44;;;;;;;2.30;0.65;;;;;;;;;;4971034;28;92538;-84
2023/06/03 12:22:11;;;;;;;1.15;0.60;;;;;;;;;;4968267;28;92720;-84
2023/06/03 12:24:42;;;;;;;1.65;0.60;;;;;;;;;;4968902;28;93116;-83
2023/06/03 12:27:13;;;;;;;3.75;0.57;;;;;;;;;;4952760;28;93604;-84
2023/06/03 12:29:40;;;;;;;;;;;;;;;;;;4958932;28;92627;-84
2023/06/03 12:32:07;;;;;;;7.43;0.57;;;;;;;;;;4985129;28;91813;-84
2023/06/03 12:34:34;;;;;;;0.80;0.57;;;;;;;;;;4973736;28;91568;-84
2023/06/03 12:37:02;;;;;;;1.10;0.90;;;;;;;;;;4971390;28;95021;-84
2023/06/03 12:39:48;;;;;;;4.45;0.50;;;;;;;;;;4966333;28;92446;-84
2023/06/03 12:42:19;;;;;;;6.57;0.50;;;;;;;;;;4960597;28;94803;-83
2023/06/03 12:44:54;;;;;;;9.27;1.15;;;;;;;;;;4970531;28;92412;-83
2023/06/03 12:47:21;;;;;;;0.43;0.40;;;;;;;;;;4957840;28;92214;-83
2023/06/03 12:50:03;;;;;;;1.00;0.40;;;;;;;;;;4969805;28;92034;-84
2023/06/03 12:52:34;;;;;;;4.03;0.65;;;;;;;;;;4957587;28;94298;-82
2023/06/03 12:55:01;;;;;;;2.85;0.38;;;;;;;;;;4975094;28;92193;-83
2023/06/03 12:57:28;;;;;;;0.98;0.65;;;;;;;;;;4960785;28;91953;-83
2023/06/03 12:59:58;;;;;;;2.35;0.70;;;;;;;;;;4965485;28;91683;-83
2023/06/03 13:02:25;;;;;;;2.58;0.47;;;;;;;;;;4974990;28;92230;-84
2023/06/03 13:04:52;;;;;;;2.78;0.68;;;;;;;;;;4976921;28;92438;-83
2023/06/03 13:07:19;;;;;;;1.25;0.50;;;;;;;;;;4969336;28;94203;-83
2023/06/03 13:09:45;;;;;;;1.38;0.40;;;;;;;;;;4969675;28;94434;-85
2023/06/03 13:12:12;;;;;;;0.45;0.43;;;;;;;;;;4969290;28;92338;-84
2023/06/03 13:14:39;;;;;;;3.72;0.55;;;;;;;;;;4968386;28;92253;-84
2023/06/03 13:17:06;;;;;;;1.70;0.40;;;;;;;;;;4970220;28;92467;-84
2023/06/03 13:19:35;;;;;;;2.22;0.50;;;;;;;;;;4980156;28;94514;-84
2023/06/03 13:22:01;;;;;;;1.02;0.50;;;;;;;;;;4982056;28;93862;-84
2023/06/03 13:24:28;;;;;;;2.55;0.57;;;;;;;;;;4970080;28;91578;-84
2023/06/03 13:26:54;;;;;;;2.05;0.50;;;;;;;;;;4969809;28;94910;-84
2023/06/03 13:29:21;;;;;;;2.53;0.55;;;;;;;;;;4967566;28;96212;-84
2023/06/03 13:31:48;;;;;;;0.30;0.30;;;;;;;;;;4967887;28;94960;-84
2023/06/03 13:34:14;;;;;;;1.77;0.38;;;;;;;;;;4971075;28;93971;-84
2023/06/03 13:36:41;;;;;;;3.50;0.70;;;;;;;;;;4965953;28;94314;-84
2023/06/03 13:39:07;;;;;;;6.57;0.75;;;;;;;;;;4963702;28;92406;-84
2023/06/03 13:41:34;;;;;;;0.95;0.50;;;;;;;;;;4966766;28;92373;-84
2023/06/03 13:44:01;;;;;;;0.90;0.35;;;;;;;;;;4949834;28;92421;-84
2023/06/03 13:46:27;;;;;;;0.55;0.40;;;;;;;;;;4933966;28;94717;-85
2023/06/03 13:48:54;;;;;;;0.52;0.40;;;;;;;;;;4962548;28;91773;-84
2023/06/03 13:51:21;;;;;;;0.65;0.50;;;;;;;;;;4953441;28;92431;-84
2023/06/03 13:53:47;;;;;;;0.65;0.60;;;;;;;;;;4955789;28;92244;-85
2023/06/03 13:56:14;;;;;;;3.55;0.55;;;;;;;;;;4960374;28;95517;-84
2023/06/03 13:58:40;;;;;;;1.17;0.50;;;;;;;;;;4961727;28;92391;-84
2023/06/03 14:01:07;;;;;;;0.50;0.50;;;;;;;;;;4963189;28;94369;-84
2023/06/03 14:03:34;;;;;;;0.68;0.38;;;;;;;;;;4967003;28;93190;-84
2023/06/03 14:06:00;;;;;;;2.03;0.45;;;;;;;;;;4962774;28;94504;-85
2023/06/03 14:08:28;;;;;;;2.20;0.40;;;;;;;;;;4958558;28;92556;-85
2023/06/03 14:10:55;;;;;;;2.85;0.60;;;;;;;;;;4964706;28;93721;-84
2023/06/03 14:13:21;;;;;;;5.35;0.50;;;;;;;;;;4957467;28;94382;-85
2023/06/03 14:15:48;;;;;;;5.50;0.60;;;;;;;;;;4963398;28;93296;-85
2023/06/03 14:18:14;;;;;;;2.60;0.80;;;;;;;;;;4968551;28;93016;-84
2023/06/03 14:20:41;;;;;;;1.00;0.43;;;;;;;;;;4960544;28;95900;-85
2023/06/03 14:23:07;;;;;;;1.83;0.40;;;;;;;;;;4957796;28;94674;-85
2023/06/03 14:25:34;;;;;;;2.33;0.40;;;;;;;;;;4958944;28;92401;-85
2023/06/03 14:28:03;;;;;;;1.17;0.40;;;;;;;;;;4966570;28;95682;-82
2023/06/03 14:30:30;;;;;;;2.50;0.60;;;;;;;;;;4967985;28;92068;-82
2023/06/03 14:33:16;;;;;;;2.97;0.52;;;;;;;;;;4967005;28;92564;-82
2023/06/03 14:35:43;;;;;;;1.95;0.70;;;;;;;;;;4965898;28;92210;-83
2023/06/03 14:38:09;;;;;;;2.10;0.43;;;;;;;;;;4966298;28;95041;-83
2023/06/03 14:40:36;;;;;;;3.50;0.47;;;;;;;;;;4965928;28;93791;-83
2023/06/03 14:43:03;;;;;;;2.10;0.75;;;;;;;;;;4953592;28;92172;-83
2023/06/03 14:45:30;;;;;;;5.65;0.70;;;;;;;;;;4966323;28;94569;-83
2023/06/03 14:47:57;;;;;;;4.53;0.55;;;;;;;;;;4954719;28;96403;-83
2023/06/03 14:50:23;;;;;;;1.80;0.57;;;;;;;;;;4968223;28;91991;-83
2023/06/03 14:52:50;;;;;;;7.88;0.75;;;;;;;;;;4971814;28;95555;-83